createdAt,value
2019-03-06T00:01:07.859Z,90.67
2019-03-06T00:03:39.863Z,90.78
2019-03-06T00:06:16.781Z,90.82
2019-03-06T00:08:45.801Z,90.82
2019-03-06T00:11:17.786Z,90.81
2019-03-06T00:13:49.827Z,90.80
2019-03-06T00:16:21.829Z,90.80
2019-03-06T00:18:53.812Z,90.82
2019-03-06T00:21:25.834Z,90.53
2019-03-06T00:23:57.810Z,90.13
2019-03-06T00:26:29.938Z,90.06
2019-03-06T00:29:01.948Z,90.06
2019-03-06T00:31:33.924Z,90.20
2019-03-06T00:34:05.900Z,90.19
2019-03-06T00:36:37.892Z,90.26
2019-03-06T00:39:10.137Z,90.42
2019-03-06T00:41:47.350Z,90.45
2019-03-06T00:44:19.326Z,90.58
2019-03-06T00:46:51.324Z,90.14
2019-03-06T00:49:23.306Z,89.99
2019-03-06T00:51:55.731Z,90.32
2019-03-06T00:54:27.669Z,90.24
2019-03-06T00:56:59.678Z,90.28
2019-03-06T00:59:31.633Z,90.52
2019-03-06T01:02:04.145Z,90.57
2019-03-06T01:04:36.123Z,90.72
2019-03-06T01:07:08.129Z,90.67
2019-03-06T01:09:40.092Z,90.86
2019-03-06T01:12:12.393Z,90.26
2019-03-06T01:14:44.374Z,90.24
2019-03-06T01:17:16.337Z,90.40
2019-03-06T01:19:48.341Z,90.06
2019-03-06T01:22:20.336Z,90.30
2019-03-06T01:24:52.292Z,90.41
2019-03-06T01:27:24.302Z,90.17
2019-03-06T01:29:56.251Z,90.01
2019-03-06T01:32:28.334Z,89.97
2019-03-06T01:35:18.529Z,89.33
2019-03-06T01:38:08.942Z,89.53
2019-03-06T01:40:59.391Z,89.97
2019-03-06T01:43:36.279Z,89.82
2019-03-06T01:46:08.265Z,89.41
2019-03-06T01:48:40.511Z,89.32
2019-03-06T01:51:12.452Z,89.64
2019-03-06T01:53:44.459Z,89.60
2019-03-06T01:56:16.402Z,90.08
2019-03-06T01:58:48.392Z,90.23
2019-03-06T02:01:20.392Z,90.26
2019-03-06T02:03:52.384Z,90.16
2019-03-06T02:06:24.388Z,89.74
2019-03-06T02:08:56.381Z,90.00
2019-03-06T02:11:28.340Z,90.09
2019-03-06T02:14:00.340Z,90.65
2019-03-06T02:16:32.500Z,89.99
2019-03-06T02:19:04.527Z,90.56
2019-03-06T02:21:36.496Z,90.71
2019-03-06T02:24:08.474Z,90.48
2019-03-06T02:26:40.746Z,90.16
2019-03-06T02:29:12.727Z,89.97
2019-03-06T02:31:44.680Z,89.05
2019-03-06T02:34:16.660Z,89.47
2019-03-06T02:36:48.843Z,89.50
2019-03-06T02:39:20.825Z,90.04
2019-03-06T02:41:52.767Z,90.14
2019-03-06T02:44:24.748Z,89.72
2019-03-06T02:46:56.728Z,89.15
2019-03-06T02:49:28.740Z,89.12
2019-03-06T02:52:00.726Z,89.40
2019-03-06T02:54:32.697Z,89.73
2019-03-06T02:57:04.639Z,89.80
2019-03-06T03:00:05.349Z,89.80
2019-03-06T03:02:55.299Z,89.89
2019-03-06T03:05:34.866Z,89.82
2019-03-06T03:08:06.810Z,89.76
2019-03-06T03:10:38.837Z,89.85
2019-03-06T03:13:10.783Z,90.17
2019-03-06T03:15:42.762Z,90.19
2019-03-06T03:18:14.749Z,89.95
2019-03-06T03:20:46.696Z,89.91
2019-03-06T03:23:18.660Z,90.03
2019-03-06T03:25:50.649Z,90.05
2019-03-06T03:28:22.618Z,89.80
2019-03-06T03:30:54.589Z,90.07
2019-03-06T03:33:26.857Z,90.37
2019-03-06T03:35:58.856Z,90.31
2019-03-06T03:38:30.832Z,90.58
2019-03-06T03:41:02.825Z,90.14
2019-03-06T03:43:34.765Z,90.29
2019-03-06T03:46:06.772Z,90.26
2019-03-06T03:48:38.704Z,90.28
2019-03-06T03:51:10.687Z,90.57
2019-03-06T03:53:42.643Z,90.91
2019-03-06T03:56:14.694Z,90.89
2019-03-06T03:58:46.662Z,90.75
2019-03-06T04:01:18.634Z,90.35
2019-03-06T04:03:50.629Z,89.90
2019-03-06T04:06:22.820Z,90.41
2019-03-06T04:08:54.797Z,90.34
2019-03-06T04:11:26.877Z,90.10
2019-03-06T04:13:58.862Z,90.42
2019-03-06T04:16:31.131Z,90.46
2019-03-06T04:19:03.127Z,90.62
2019-03-06T04:21:35.094Z,90.71
2019-03-06T04:24:07.091Z,90.72
2019-03-06T04:26:39.063Z,90.80
2019-03-06T04:29:11.053Z,90.42
2019-03-06T04:31:43.009Z,90.76
2019-03-06T04:34:15.253Z,90.89
2019-03-06T04:36:47.256Z,90.58
2019-03-06T04:39:19.231Z,90.38
2019-03-06T04:41:52.510Z,89.82
2019-03-06T04:44:24.504Z,89.97
2019-03-06T04:46:56.479Z,89.98
2019-03-06T04:49:28.469Z,89.97
2019-03-06T04:52:00.488Z,89.99
2019-03-06T04:54:32.452Z,89.88
2019-03-06T04:57:04.519Z,89.93
2019-03-06T04:59:36.599Z,89.72
2019-03-06T05:02:08.562Z,89.15
2019-03-06T05:04:40.556Z,89.06
2019-03-06T05:07:12.510Z,88.96
2019-03-06T05:09:44.807Z,89.22
2019-03-06T05:12:16.769Z,88.77
2019-03-06T05:14:51.365Z,88.96
2019-03-06T05:17:33.331Z,88.99
2019-03-06T05:20:05.383Z,89.12
2019-03-06T05:22:37.361Z,89.24
2019-03-06T05:25:09.366Z,89.06
2019-03-06T05:27:41.352Z,89.23
2019-03-06T05:30:14.154Z,89.06
2019-03-06T05:32:46.558Z,89.21
2019-03-06T05:36:03.396Z,88.94
2019-03-06T05:38:43.082Z,88.70
2019-03-06T05:41:15.040Z,88.47
2019-03-06T05:43:47.001Z,88.92
2019-03-06T05:46:19.020Z,88.82
2019-03-06T05:48:50.981Z,88.59
2019-03-06T05:51:22.969Z,88.42
2019-03-06T05:53:54.949Z,88.33
2019-03-06T05:56:26.976Z,88.81
2019-03-06T05:58:59.010Z,89.37
2019-03-06T06:01:30.987Z,89.10
2019-03-06T06:04:03.147Z,88.92
2019-03-06T06:06:35.153Z,88.96
2019-03-06T06:09:07.120Z,88.59
2019-03-06T06:11:39.147Z,89.08
2019-03-06T06:14:11.118Z,89.64
2019-03-06T06:16:43.099Z,89.90
2019-03-06T06:19:15.087Z,89.83
2019-03-06T06:22:12.968Z,89.85
2019-03-06T06:24:44.954Z,89.87
2019-03-06T06:27:16.960Z,90.00
2019-03-06T06:29:49.122Z,90.01
2019-03-06T06:32:21.105Z,89.73
2019-03-06T06:34:53.076Z,89.56
2019-03-06T06:37:25.173Z,88.49
2019-03-06T06:39:57.520Z,88.46
2019-03-06T06:42:29.494Z,87.39
2019-03-06T06:45:01.449Z,85.18
2019-03-06T06:47:33.488Z,85.85
2019-03-06T06:50:05.724Z,84.96
2019-03-06T06:53:10.140Z,82.12
2019-03-06T06:56:02.097Z,79.92
2019-03-06T06:59:00.779Z,79.13
2019-03-06T07:02:02.807Z,80.37
2019-03-06T07:05:37.308Z,78.12
2019-03-06T07:08:28.920Z,78.63
2019-03-06T07:11:23.111Z,77.34
2019-03-06T07:14:02.088Z,77.14
2019-03-06T07:16:52.527Z,77.09
2019-03-06T07:19:38.308Z,77.72
2019-03-06T07:22:18.918Z,78.01
2019-03-06T07:25:13.703Z,77.56
2019-03-06T07:27:59.243Z,77.40
2019-03-06T07:30:53.577Z,77.24
2019-03-06T07:33:51.428Z,75.89
2019-03-06T07:36:43.001Z,76.27
2019-03-06T07:39:23.029Z,73.16
2019-03-06T07:42:13.524Z,74.86
2019-03-06T07:45:57.185Z,75.93
2019-03-06T07:49:10.722Z,76.30
2019-03-06T07:52:20.452Z,76.64
2019-03-06T07:55:28.403Z,76.99
2019-03-06T07:58:47.890Z,77.17
2019-03-06T08:01:20.561Z,72.14
2019-03-06T08:04:02.149Z,72.05
2019-03-06T08:06:34.370Z,72.88
2019-03-06T08:09:07.544Z,72.37
2019-03-06T08:11:49.890Z,72.16
2019-03-06T08:14:46.021Z,68.86
2019-03-06T08:17:46.463Z,69.54
2019-03-06T08:20:56.439Z,69.38
2019-03-06T08:24:00.112Z,69.89
2019-03-06T08:26:32.103Z,67.46
2019-03-06T08:29:04.178Z,67.43
2019-03-06T08:31:41.736Z,65.88
2019-03-06T08:34:13.715Z,66.62
2019-03-06T08:36:45.724Z,66.03
2019-03-06T08:39:19.593Z,62.14
2019-03-06T08:41:51.590Z,63.33
2019-03-06T08:44:23.563Z,61.55
2019-03-06T08:47:18.897Z,62.52
2019-03-06T08:50:06.822Z,56.76
2019-03-06T08:53:04.743Z,57.01
2019-03-06T08:55:56.350Z,56.71
2019-03-06T08:58:47.954Z,58.83
2019-03-06T09:01:44.285Z,60.42
2019-03-06T09:04:36.054Z,54.06
2019-03-06T09:07:33.699Z,53.57
2019-03-06T09:10:26.785Z,54.37
2019-03-06T09:13:29.196Z,55.61
2019-03-06T09:16:19.712Z,54.81
2019-03-06T09:19:10.334Z,51.06
2019-03-06T09:22:03.036Z,51.24
2019-03-06T09:24:47.391Z,52.74
2019-03-06T09:27:38.323Z,51.34
2019-03-06T09:30:36.235Z,51.30
2019-03-06T09:33:12.516Z,54.48
2019-03-06T09:36:04.148Z,50.05
2019-03-06T09:39:01.653Z,49.87
2019-03-06T09:41:42.978Z,49.61
2019-03-06T09:44:28.848Z,50.27
2019-03-06T09:47:19.512Z,49.58
2019-03-06T09:50:23.535Z,47.34
2019-03-06T09:53:13.857Z,48.80
2019-03-06T09:56:04.389Z,48.68
2019-03-06T09:58:54.825Z,48.67
2019-03-06T10:01:40.684Z,50.38
2019-03-06T10:04:25.685Z,48.26
2019-03-06T10:07:24.285Z,47.27
2019-03-06T10:10:07.025Z,47.82
2019-03-06T10:12:53.937Z,46.46
2019-03-06T10:15:31.668Z,47.08
2019-03-06T10:18:23.317Z,47.44
2019-03-06T10:20:55.370Z,47.57
2019-03-06T10:23:27.406Z,46.57
2019-03-06T10:25:59.436Z,46.75
2019-03-06T10:28:31.424Z,46.46
2019-03-06T10:31:04.142Z,47.42
2019-03-06T10:33:36.149Z,46.43
2019-03-06T10:36:08.531Z,46.14
2019-03-06T10:38:40.536Z,46.82
2019-03-06T10:41:12.539Z,46.10
2019-03-06T10:43:49.643Z,46.95
2019-03-06T10:46:18.480Z,45.72
2019-03-06T10:48:50.464Z,46.93
2019-03-06T10:51:22.774Z,46.72
2019-03-06T10:53:54.830Z,45.07
2019-03-06T10:56:27.252Z,45.39
2019-03-06T10:58:59.857Z,46.28
2019-03-06T11:01:31.946Z,45.73
2019-03-06T11:04:29.584Z,46.87
2019-03-06T11:07:01.697Z,44.22
2019-03-06T11:09:33.982Z,44.71
2019-03-06T11:12:06.415Z,44.52
2019-03-06T11:14:38.715Z,45.24
2019-03-06T11:17:10.708Z,44.45
2019-03-06T11:19:43.020Z,44.54
2019-03-06T11:22:15.071Z,44.97
2019-03-06T11:24:47.182Z,43.97
2019-03-06T11:27:19.206Z,44.62
2019-03-06T11:29:51.233Z,42.64
2019-03-06T11:32:23.282Z,42.87
2019-03-06T11:34:55.289Z,43.05
2019-03-06T11:37:28.179Z,43.00
2019-03-06T11:40:00.321Z,42.74
2019-03-06T11:42:32.394Z,42.67
2019-03-06T11:45:04.796Z,42.65
2019-03-06T11:47:36.815Z,41.60
2019-03-06T11:50:09.367Z,42.36
2019-03-06T11:52:41.377Z,41.93
2019-03-06T11:55:13.712Z,42.94
2019-03-06T11:57:45.711Z,41.91
2019-03-06T12:00:25.238Z,42.75
2019-03-06T12:02:57.214Z,42.35
2019-03-06T12:05:29.333Z,41.95
2019-03-06T12:08:01.366Z,42.79
2019-03-06T12:10:33.369Z,42.57
2019-03-06T12:13:08.287Z,43.96
2019-03-06T12:15:41.976Z,43.30
2019-03-06T12:18:14.380Z,43.43
2019-03-06T12:20:46.846Z,42.37
2019-03-06T12:23:18.871Z,42.36
2019-03-06T12:25:50.916Z,42.56
2019-03-06T12:28:22.881Z,42.02
2019-03-06T12:30:55.298Z,42.38
2019-03-06T12:33:28.209Z,41.90
2019-03-06T12:36:00.221Z,42.44
2019-03-06T12:38:32.214Z,42.21
2019-03-06T12:41:04.507Z,43.05
2019-03-06T12:43:37.126Z,42.10
2019-03-06T12:46:30.490Z,42.01
2019-03-06T12:49:13.832Z,43.29
2019-03-06T12:51:54.095Z,42.91
2019-03-06T12:54:19.787Z,42.98
2019-03-06T12:56:51.808Z,43.55
2019-03-06T12:59:23.833Z,43.73
2019-03-06T13:01:55.851Z,42.16
2019-03-06T13:04:27.859Z,43.55
2019-03-06T13:06:59.965Z,42.53
2019-03-06T13:09:31.992Z,42.22
2019-03-06T13:12:04.081Z,41.99
2019-03-06T13:14:36.076Z,42.69
2019-03-06T13:17:08.087Z,42.39
2019-03-06T13:19:40.076Z,42.82
2019-03-06T13:22:12.143Z,43.01
2019-03-06T13:24:44.635Z,42.89
2019-03-06T13:27:16.619Z,42.99
2019-03-06T13:29:48.616Z,41.78
2019-03-06T13:32:22.628Z,42.04
2019-03-06T13:34:59.149Z,42.35
2019-03-06T13:37:31.139Z,42.86
2019-03-06T13:40:03.852Z,42.55
2019-03-06T13:42:35.889Z,42.94
2019-03-06T13:45:08.408Z,43.00
2019-03-06T13:47:40.602Z,42.96
2019-03-06T13:50:13.009Z,42.52
2019-03-06T13:52:45.062Z,42.38
2019-03-06T13:55:17.110Z,41.98
2019-03-06T13:57:49.221Z,42.72
2019-03-06T14:00:21.331Z,42.78
2019-03-06T14:02:53.404Z,42.97
2019-03-06T14:05:25.517Z,42.75
2019-03-06T14:07:57.519Z,42.39
2019-03-06T14:10:29.483Z,42.32
2019-03-06T14:13:01.633Z,41.97
2019-03-06T14:15:33.803Z,42.91
2019-03-06T14:18:06.736Z,42.81
2019-03-06T14:20:38.778Z,41.85
2019-03-06T14:23:10.812Z,42.33
2019-03-06T14:25:42.865Z,41.98
2019-03-06T14:28:15.863Z,42.24
2019-03-06T14:30:48.007Z,42.26
2019-03-06T14:33:20.165Z,41.24
2019-03-06T14:35:52.597Z,42.45
2019-03-06T14:38:24.610Z,41.75
2019-03-06T14:40:57.192Z,41.72
2019-03-06T14:43:29.217Z,41.85
2019-03-06T14:46:01.258Z,42.84
2019-03-06T14:48:33.292Z,42.55
2019-03-06T14:51:05.305Z,42.28
2019-03-06T14:53:37.317Z,42.17
2019-03-06T14:56:09.345Z,42.73
2019-03-06T14:58:41.340Z,42.55
2019-03-06T15:01:13.383Z,43.12
2019-03-06T15:03:45.406Z,43.02
2019-03-06T15:06:17.516Z,42.77
2019-03-06T15:08:49.476Z,43.59
2019-03-06T15:11:21.840Z,42.55
2019-03-06T15:13:53.828Z,41.97
2019-03-06T15:16:25.822Z,42.59
2019-03-06T15:18:57.856Z,42.51
2019-03-06T15:21:29.883Z,42.70
2019-03-06T15:24:01.884Z,43.19
2019-03-06T15:26:33.879Z,42.81
2019-03-06T15:29:05.874Z,43.62
2019-03-06T15:31:37.902Z,44.29
2019-03-06T15:34:10.520Z,44.22
2019-03-06T15:36:42.624Z,43.91
2019-03-06T15:39:28.802Z,44.79
2019-03-06T15:42:03.075Z,44.96
2019-03-06T15:44:35.473Z,45.70
2019-03-06T15:47:07.805Z,45.79
2019-03-06T15:49:39.815Z,45.68
2019-03-06T15:52:11.859Z,45.46
2019-03-06T15:54:43.933Z,45.82
2019-03-06T15:57:16.033Z,46.02
2019-03-06T15:59:48.069Z,45.94
2019-03-06T16:02:20.070Z,46.61
2019-03-06T16:04:52.132Z,46.60
2019-03-06T16:07:24.384Z,46.85
2019-03-06T16:09:56.422Z,47.41
2019-03-06T16:12:28.400Z,47.08
2019-03-06T16:15:00.438Z,47.28
2019-03-06T16:17:32.443Z,47.62
2019-03-06T16:20:08.450Z,48.21
2019-03-06T16:22:40.480Z,49.17
2019-03-06T16:25:12.644Z,49.47
2019-03-06T16:27:44.760Z,49.17
2019-03-06T16:30:17.481Z,49.69
2019-03-06T16:32:49.590Z,48.95
2019-03-06T16:35:21.700Z,49.45
2019-03-06T16:37:53.721Z,50.54
2019-03-06T16:40:26.067Z,50.42
2019-03-06T16:42:58.131Z,50.64
2019-03-06T16:45:30.454Z,50.70
2019-03-06T16:48:02.535Z,51.48
2019-03-06T16:50:34.610Z,52.14
2019-03-06T16:53:06.715Z,51.41
2019-03-06T16:55:39.973Z,51.95
2019-03-06T16:58:12.190Z,52.77
2019-03-06T17:00:44.486Z,54.13
2019-03-06T17:03:16.531Z,55.10
2019-03-06T17:05:48.673Z,56.20
2019-03-06T17:08:20.713Z,57.14
2019-03-06T17:10:52.750Z,57.55
2019-03-06T17:13:24.823Z,58.09
2019-03-06T17:15:56.836Z,58.72
2019-03-06T17:18:28.831Z,59.33
2019-03-06T17:21:00.900Z,59.77
2019-03-06T17:23:32.906Z,60.08
2019-03-06T17:26:04.943Z,58.83
2019-03-06T17:28:37.261Z,59.30
2019-03-06T17:31:09.341Z,58.86
2019-03-06T17:33:41.346Z,58.84
2019-03-06T17:36:13.435Z,58.84
2019-03-06T17:38:45.480Z,59.62
2019-03-06T17:41:17.573Z,60.01
2019-03-06T17:43:49.564Z,60.40
2019-03-06T17:46:21.583Z,60.84
2019-03-06T17:48:53.654Z,62.39
2019-03-06T17:51:25.731Z,62.79
2019-03-06T17:53:57.784Z,63.58
2019-03-06T17:56:29.874Z,63.91
2019-03-06T17:59:03.324Z,64.54
2019-03-06T18:01:35.550Z,65.92
2019-03-06T18:04:17.992Z,66.20
2019-03-06T18:06:50.070Z,66.15
2019-03-06T18:09:22.219Z,66.10
2019-03-06T18:11:54.318Z,66.20
2019-03-06T18:14:26.377Z,66.40
2019-03-06T18:16:58.460Z,66.46
2019-03-06T18:19:30.548Z,66.37
2019-03-06T18:22:02.615Z,66.04
2019-03-06T18:24:34.710Z,66.37
2019-03-06T18:27:06.804Z,66.22
2019-03-06T18:29:38.869Z,65.92
2019-03-06T18:32:10.971Z,66.23
2019-03-06T18:34:43.118Z,67.19
2019-03-06T18:37:15.278Z,67.49
2019-03-06T18:39:47.353Z,67.96
2019-03-06T18:42:19.395Z,67.80
2019-03-06T18:44:51.459Z,67.74
2019-03-06T18:47:23.495Z,67.81
2019-03-06T18:49:55.572Z,66.67
2019-03-06T18:52:27.632Z,67.65
2019-03-06T18:55:01.390Z,68.37
2019-03-06T18:57:33.662Z,68.56
2019-03-06T19:00:07.722Z,68.82
2019-03-06T19:02:39.906Z,69.69
2019-03-06T19:05:12.417Z,70.17
2019-03-06T19:07:44.590Z,70.68
2019-03-06T19:10:17.256Z,70.79
2019-03-06T19:12:49.333Z,70.90
2019-03-06T19:15:21.546Z,70.69
2019-03-06T19:17:53.691Z,70.69
2019-03-06T19:20:25.838Z,70.90
2019-03-06T19:22:57.906Z,70.93
2019-03-06T19:25:31.284Z,70.87
2019-03-06T19:28:06.818Z,70.53
2019-03-06T19:30:39.027Z,70.53
2019-03-06T19:33:11.081Z,71.06
2019-03-06T19:35:43.202Z,71.06
2019-03-06T19:38:15.303Z,71.24
2019-03-06T19:40:47.376Z,71.55
2019-03-06T19:43:19.434Z,72.15
2019-03-06T19:45:51.561Z,72.25
2019-03-06T19:48:23.606Z,72.38
2019-03-06T19:50:55.675Z,72.22
2019-03-06T19:53:27.708Z,72.41
2019-03-06T19:55:59.834Z,71.93
2019-03-06T19:58:31.861Z,71.91
2019-03-06T20:01:03.943Z,72.22
2019-03-06T20:03:36.045Z,72.47
2019-03-06T20:06:08.028Z,72.79
2019-03-06T20:08:40.091Z,73.08
2019-03-06T20:11:12.119Z,73.44
2019-03-06T20:13:44.272Z,73.98
2019-03-06T20:16:16.419Z,73.64
2019-03-06T20:18:49.740Z,73.27
2019-03-06T20:21:21.813Z,71.64
2019-03-06T20:23:53.963Z,71.23
2019-03-06T20:26:26.038Z,72.25
2019-03-06T20:28:58.164Z,73.33
2019-03-06T20:31:30.448Z,73.17
2019-03-06T20:34:02.517Z,73.59
2019-03-06T20:36:34.528Z,74.13
2019-03-06T20:39:07.653Z,74.30
2019-03-06T20:41:39.697Z,74.35
2019-03-06T20:44:11.791Z,74.08
2019-03-06T20:46:43.855Z,74.33
2019-03-06T20:49:16.020Z,74.05
2019-03-06T20:51:50.303Z,74.10
2019-03-06T20:54:23.255Z,74.29
2019-03-06T20:56:57.416Z,74.27
2019-03-06T20:59:29.462Z,74.24
2019-03-06T21:02:01.533Z,74.36
2019-03-06T21:04:33.698Z,74.74
2019-03-06T21:07:06.119Z,74.51
2019-03-06T21:09:38.214Z,73.82
2019-03-06T21:12:10.275Z,73.51
2019-03-06T21:14:42.371Z,73.74
2019-03-06T21:17:14.421Z,73.94
2019-03-06T21:19:46.498Z,73.92
2019-03-06T21:22:18.593Z,74.06
2019-03-06T21:24:52.251Z,74.27
2019-03-06T21:27:24.299Z,74.21
2019-03-06T21:29:56.385Z,73.87
2019-03-06T21:32:28.725Z,73.95
2019-03-06T21:35:00.956Z,74.07
2019-03-06T21:37:32.967Z,74.08
2019-03-06T21:40:06.303Z,74.46
2019-03-06T21:42:38.352Z,74.61
2019-03-06T21:45:10.897Z,74.90
2019-03-06T21:47:43.053Z,74.98
2019-03-06T21:50:15.149Z,75.06
2019-03-06T21:52:47.191Z,75.41
2019-03-06T21:55:19.287Z,75.62
2019-03-06T21:57:51.682Z,75.13
2019-03-06T22:00:23.859Z,75.39
2019-03-06T22:02:55.893Z,75.41
2019-03-06T22:05:27.994Z,75.27
2019-03-06T22:08:00.042Z,75.10
2019-03-06T22:10:32.111Z,75.16
2019-03-06T22:13:04.172Z,75.21
2019-03-06T22:15:36.321Z,75.44
2019-03-06T22:18:08.356Z,75.10
2019-03-06T22:20:40.412Z,75.16
2019-03-06T22:23:12.409Z,75.35
2019-03-06T22:25:44.457Z,75.86
2019-03-06T22:28:16.694Z,75.76
2019-03-06T22:30:49.803Z,76.01
2019-03-06T22:33:22.181Z,75.82
2019-03-06T22:35:54.250Z,75.41
2019-03-06T22:38:26.267Z,75.68
2019-03-06T22:40:58.262Z,75.64
2019-03-06T22:43:30.310Z,75.30
2019-03-06T22:46:02.705Z,74.91
2019-03-06T22:48:36.886Z,74.92
2019-03-06T22:51:08.679Z,74.58
2019-03-06T22:53:40.716Z,74.61
2019-03-06T22:56:12.764Z,74.85
2019-03-06T22:58:44.839Z,74.77
2019-03-06T23:01:23.279Z,74.76
2019-03-06T23:03:56.732Z,74.54
2019-03-06T23:06:28.713Z,74.68
2019-03-06T23:09:00.710Z,75.16
2019-03-06T23:11:33.823Z,75.39
2019-03-06T23:14:05.827Z,75.76
2019-03-06T23:16:37.827Z,75.93
2019-03-06T23:19:09.981Z,76.05
2019-03-06T23:21:41.972Z,76.12
2019-03-06T23:24:14.005Z,76.25
2019-03-06T23:26:45.954Z,76.20
2019-03-06T23:29:17.942Z,76.38
2019-03-06T23:31:50.556Z,76.39
2019-03-06T23:34:22.649Z,76.52
2019-03-06T23:36:54.620Z,76.47
2019-03-06T23:39:26.649Z,76.59
2019-03-06T23:41:58.957Z,76.55
2019-03-06T23:44:30.956Z,76.66
2019-03-06T23:47:06.086Z,76.78
2019-03-06T23:49:38.081Z,76.49
2019-03-06T23:52:32.985Z,76.56
2019-03-06T23:55:05.215Z,76.66
2019-03-06T23:57:37.167Z,76.81
